createdAt,value
2022-10-22T00:01:12.794Z,101033.31
2022-10-22T00:03:40.035Z,101039.03
2022-10-22T00:06:07.337Z,101043.03
2022-10-22T00:08:34.102Z,101050.38
2022-10-22T00:11:17.678Z,101041.84
2022-10-22T00:13:44.559Z,101041.63
2022-10-22T00:16:11.545Z,101048.22
2022-10-22T00:18:38.800Z,101050.06
2022-10-22T00:21:06.557Z,101047.72
2022-10-22T00:23:34.309Z,101056.44
2022-10-22T00:26:01.159Z,101058.84
2022-10-22T00:28:28.060Z,101054.97
2022-10-22T00:30:59.833Z,101060.75
2022-10-22T00:33:27.986Z,101059.22
2022-10-22T00:35:54.926Z,101060.25
2022-10-22T00:38:22.091Z,101065.78
2022-10-22T00:40:48.974Z,101059.78
2022-10-22T00:43:19.478Z,101061.34
2022-10-22T00:45:46.437Z,101053.97
2022-10-22T00:48:23.318Z,101062.03
2022-10-22T00:50:56.730Z,101064.56
2022-10-22T00:53:29.321Z,101068.44
2022-10-22T00:55:56.561Z,101058.47
2022-10-22T00:58:26.491Z,101062.38
2022-10-22T01:00:53.918Z,101054.22
2022-10-22T01:03:20.988Z,101064.69
2022-10-22T01:05:58.443Z,101062.38
2022-10-22T01:08:49.014Z,101067.63
2022-10-22T01:11:35.959Z,101068.38
2022-10-22T01:14:12.186Z,101070.72
2022-10-22T01:17:10.832Z,101066.25
2022-10-22T01:19:56.225Z,101068.59
2022-10-22T01:22:34.393Z,101073.63
2022-10-22T01:25:22.307Z,101066.53
2022-10-22T01:28:06.474Z,101063.16
2022-10-22T01:30:36.061Z,101057.16
2022-10-22T01:33:06.805Z,101061.03
2022-10-22T01:35:39.129Z,101061.78
2022-10-22T01:38:11.095Z,101068.28
2022-10-22T01:40:38.402Z,101067.31
2022-10-22T01:43:08.612Z,101063.63
2022-10-22T01:45:45.871Z,101060.25
2022-10-22T01:48:34.381Z,101061.31
2022-10-22T01:51:19.406Z,101078.84
2022-10-22T01:54:16.565Z,101068.66
2022-10-22T01:57:08.015Z,101061.38
2022-10-22T01:59:48.612Z,101068.16
2022-10-22T02:02:44.992Z,101065.84
2022-10-22T02:05:28.896Z,101061.69
2022-10-22T02:08:08.179Z,101061.94
2022-10-22T02:10:39.080Z,101055.94
2022-10-22T02:13:10.640Z,101051.00
2022-10-22T02:15:40.161Z,101052.03
2022-10-22T02:18:09.869Z,101047.69
2022-10-22T02:20:39.048Z,101048.75
2022-10-22T02:23:06.091Z,101041.94
2022-10-22T02:25:36.986Z,101037.00
2022-10-22T02:28:34.705Z,101046.19
2022-10-22T02:31:08.286Z,101043.31
2022-10-22T02:33:41.386Z,101040.19
2022-10-22T02:36:09.199Z,101040.75
2022-10-22T02:38:37.234Z,101048.38
2022-10-22T02:41:05.063Z,101050.50
2022-10-22T02:43:43.343Z,101041.13
2022-10-22T02:46:11.679Z,101049.81
2022-10-22T02:48:38.689Z,101054.25
2022-10-22T02:51:05.690Z,101043.03
2022-10-22T02:53:32.735Z,101046.41
2022-10-22T02:56:00.454Z,101056.38
2022-10-22T02:58:27.287Z,101060.06
2022-10-22T03:00:54.166Z,101055.97
2022-10-22T03:03:21.008Z,101070.09
2022-10-22T03:05:47.856Z,101067.47
2022-10-22T03:08:14.659Z,101063.31
2022-10-22T03:10:41.539Z,101059.94
2022-10-22T03:13:08.339Z,101066.22
2022-10-22T03:15:35.213Z,101062.84
2022-10-22T03:18:02.066Z,101060.22
2022-10-22T03:20:28.897Z,101056.03
2022-10-22T03:22:57.015Z,101060.78
2022-10-22T03:25:27.474Z,101066.81
2022-10-22T03:27:58.116Z,101064.38
2022-10-22T03:30:24.950Z,101063.88
2022-10-22T03:32:51.709Z,101066.22
2022-10-22T03:35:18.431Z,101069.09
2022-10-22T03:37:45.313Z,101073.22
2022-10-22T03:40:13.070Z,101069.53
2022-10-22T03:42:41.508Z,101062.19
2022-10-22T03:45:09.064Z,101076.81
2022-10-22T03:47:37.588Z,101070.53
2022-10-22T03:50:06.129Z,101070.75
2022-10-22T03:52:38.532Z,101077.25
2022-10-22T03:55:06.705Z,101079.28
2022-10-22T03:57:33.559Z,101077.16
2022-10-22T04:00:00.307Z,101086.31
2022-10-22T04:02:27.067Z,101089.19
2022-10-22T04:04:53.820Z,101089.19
2022-10-22T04:07:20.582Z,101089.19
2022-10-22T04:09:47.363Z,101084.47
2022-10-22T04:12:14.173Z,101088.16
2022-10-22T04:14:40.995Z,101087.84
2022-10-22T04:17:07.732Z,101087.34
2022-10-22T04:19:34.598Z,101085.53
2022-10-22T04:22:01.688Z,101085.81
2022-10-22T04:24:31.085Z,101089.19
2022-10-22T04:26:58.660Z,101094.44
2022-10-22T04:29:26.033Z,101100.72
2022-10-22T04:31:52.994Z,101101.78
2022-10-22T04:34:19.838Z,101099.44
2022-10-22T04:36:46.675Z,101103.63
2022-10-22T04:39:13.458Z,101092.84
2022-10-22T04:41:40.331Z,101102.28
2022-10-22T04:44:11.051Z,101102.78
2022-10-22T04:46:42.938Z,101102.78
2022-10-22T04:49:09.794Z,101097.53
2022-10-22T04:51:36.637Z,101107.16
2022-10-22T04:54:03.488Z,101099.28
2022-10-22T04:56:31.824Z,101104.25
2022-10-22T04:59:01.801Z,101103.19
2022-10-22T05:01:37.078Z,101111.06
2022-10-22T05:04:09.305Z,101109.97
2022-10-22T05:06:36.888Z,101115.22
2022-10-22T05:09:11.031Z,101108.13
2022-10-22T05:11:41.813Z,101115.97
2022-10-22T05:14:10.283Z,101114.16
2022-10-22T05:16:38.431Z,101119.41
2022-10-22T05:19:06.695Z,101109.97
2022-10-22T05:21:34.368Z,101120.44
2022-10-22T05:24:01.241Z,101119.94
2022-10-22T05:26:29.438Z,101115.78
2022-10-22T05:28:56.986Z,101126.53
2022-10-22T05:31:23.895Z,101126.81
2022-10-22T05:33:50.776Z,101130.50
2022-10-22T05:36:20.264Z,101123.22
2022-10-22T05:38:47.470Z,101124.56
2022-10-22T05:41:18.152Z,101125.88
2022-10-22T05:43:45.262Z,101132.94
2022-10-22T05:46:18.679Z,101132.19
2022-10-22T05:49:02.685Z,101136.63
2022-10-22T05:51:31.946Z,101136.63
2022-10-22T05:54:05.329Z,101143.19
2022-10-22T05:56:32.626Z,101149.50
2022-10-22T05:58:59.751Z,101143.00
2022-10-22T06:01:30.284Z,101149.28
2022-10-22T06:04:00.211Z,101149.56
2022-10-22T06:06:51.207Z,101145.88
2022-10-22T06:09:27.948Z,101151.91
2022-10-22T06:11:56.047Z,101155.78
2022-10-22T06:14:23.694Z,101163.94
2022-10-22T06:16:51.413Z,101162.09
2022-10-22T06:19:20.656Z,101162.84
2022-10-22T06:21:48.198Z,101164.69
2022-10-22T06:24:16.285Z,101178.81
2022-10-22T06:26:43.130Z,101170.47
2022-10-22T06:29:10.452Z,101180.38
2022-10-22T06:31:37.403Z,101180.94
2022-10-22T06:34:10.467Z,101190.84
2022-10-22T06:36:37.364Z,101190.56
2022-10-22T06:39:05.055Z,101191.63
2022-10-22T06:41:31.964Z,101192.97
2022-10-22T06:43:58.977Z,101206.81
2022-10-22T06:46:26.291Z,101200.53
2022-10-22T06:48:56.727Z,101211.50
2022-10-22T06:51:24.287Z,101218.00
2022-10-22T06:53:51.339Z,101215.66
2022-10-22T06:56:20.901Z,101221.91
2022-10-22T06:58:52.469Z,101226.34
2022-10-22T07:01:21.753Z,101231.81
2022-10-22T07:03:51.470Z,101226.81
2022-10-22T07:06:19.598Z,101231.47
2022-10-22T07:08:46.959Z,101232.47
2022-10-22T07:11:16.490Z,101231.59
2022-10-22T07:13:44.015Z,101239.63
2022-10-22T07:16:11.351Z,101245.59
2022-10-22T07:18:39.801Z,101240.75
2022-10-22T07:21:08.026Z,101250.88
2022-10-22T07:23:35.153Z,101247.13
2022-10-22T07:26:02.990Z,101254.44
2022-10-22T07:28:30.895Z,101250.19
2022-10-22T07:30:58.114Z,101259.03
2022-10-22T07:33:25.016Z,101261.31
2022-10-22T07:35:51.916Z,101263.09
2022-10-22T07:38:18.776Z,101257.78
2022-10-22T07:40:45.626Z,101270.72
2022-10-22T07:43:12.511Z,101265.16
2022-10-22T07:45:39.341Z,101276.03
2022-10-22T07:48:06.583Z,101280.13
2022-10-22T07:50:33.972Z,101281.03
2022-10-22T07:53:00.939Z,101278.47
2022-10-22T07:55:27.814Z,101281.69
2022-10-22T07:57:54.722Z,101279.16
2022-10-22T08:00:24.549Z,101286.47
2022-10-22T08:02:52.732Z,101289.78
2022-10-22T08:05:19.763Z,101292.00
2022-10-22T08:07:46.664Z,101297.19
2022-10-22T08:10:13.717Z,101301.28
2022-10-22T08:12:41.658Z,101303.78
2022-10-22T08:15:10.000Z,101306.13
2022-10-22T08:17:37.118Z,101305.72
2022-10-22T08:20:04.694Z,101311.38
2022-10-22T08:22:31.547Z,101311.59
2022-10-22T08:24:59.289Z,101320.75
2022-10-22T08:27:26.859Z,101314.63
2022-10-22T08:29:53.701Z,101324.81
2022-10-22T08:32:20.572Z,101331.06
2022-10-22T08:34:47.507Z,101332.63
2022-10-22T08:37:14.591Z,101337.28
2022-10-22T08:39:41.697Z,101340.38
2022-10-22T08:42:40.100Z,101329.47
2022-10-22T08:45:12.403Z,101349.81
2022-10-22T08:48:16.510Z,101346.81
2022-10-22T08:50:49.959Z,101351.66
2022-10-22T08:53:22.544Z,101348.44
2022-10-22T08:55:53.589Z,101349.69
2022-10-22T08:58:33.536Z,101353.88
2022-10-22T09:01:10.058Z,101357.28
2022-10-22T09:03:41.722Z,101365.94
2022-10-22T09:06:16.377Z,101373.22
2022-10-22T09:08:45.860Z,101371.41
2022-10-22T09:11:12.732Z,101381.59
2022-10-22T09:13:45.170Z,101381.22
2022-10-22T09:16:15.022Z,101378.94
2022-10-22T09:19:05.219Z,101379.63
2022-10-22T09:22:04.573Z,101388.38
2022-10-22T09:24:39.245Z,101388.72
2022-10-22T09:27:32.574Z,101382.91
2022-10-22T09:30:01.945Z,101395.81
2022-10-22T09:32:29.322Z,101391.09
2022-10-22T09:34:58.237Z,101391.75
2022-10-22T09:37:30.293Z,101400.09
2022-10-22T09:39:59.178Z,101397.88
2022-10-22T09:42:26.026Z,101400.84
2022-10-22T09:44:59.042Z,101402.72
2022-10-22T09:48:01.884Z,101411.53
2022-10-22T09:50:29.322Z,101407.03
2022-10-22T09:53:13.120Z,101409.13
2022-10-22T09:55:42.248Z,101419.09
2022-10-22T09:58:12.416Z,101415.38
2022-10-22T10:00:41.107Z,101420.22
2022-10-22T10:03:18.375Z,101424.28
2022-10-22T10:05:49.579Z,101430.44
2022-10-22T10:08:17.883Z,101434.94
2022-10-22T10:11:10.823Z,101441.94
2022-10-22T10:14:01.258Z,101448.16
2022-10-22T10:16:43.589Z,101438.13
2022-10-22T10:19:22.037Z,101436.81
2022-10-22T10:22:05.728Z,101442.78
2022-10-22T10:24:38.549Z,101436.94
2022-10-22T10:27:26.080Z,101443.63
2022-10-22T10:30:05.764Z,101448.44
2022-10-22T10:32:32.619Z,101467.81
2022-10-22T10:35:17.470Z,101459.75
2022-10-22T10:37:54.240Z,101460.72
2022-10-22T10:40:48.789Z,101464.00
2022-10-22T10:43:18.673Z,101463.72
2022-10-22T10:45:57.594Z,101466.34
2022-10-22T10:48:46.087Z,101467.28
2022-10-22T10:51:37.149Z,101471.31
2022-10-22T10:54:12.517Z,101479.06
2022-10-22T10:56:52.209Z,101478.28
2022-10-22T10:59:19.083Z,101481.88
2022-10-22T11:02:10.460Z,101472.09
2022-10-22T11:05:04.295Z,101486.97
2022-10-22T11:07:40.853Z,101479.41
2022-10-22T11:10:12.850Z,101480.94
2022-10-22T11:12:46.561Z,101490.25
2022-10-22T11:15:35.161Z,101483.41
2022-10-22T11:18:14.567Z,101484.34
2022-10-22T11:20:50.981Z,101494.75
2022-10-22T11:23:25.938Z,101495.22
2022-10-22T11:25:53.105Z,101505.31
2022-10-22T11:28:35.620Z,101502.06
2022-10-22T11:31:09.013Z,101499.25
2022-10-22T11:33:54.562Z,101510.44
2022-10-22T11:38:56.783Z,101491.38
2022-10-22T11:41:30.857Z,101510.47
2022-10-22T11:44:05.471Z,101496.03
2022-10-22T11:46:53.702Z,101500.66
2022-10-22T11:49:42.424Z,101497.75
2022-10-22T11:52:28.396Z,101507.66
2022-10-22T11:54:58.008Z,101510.16
2022-10-22T11:57:39.590Z,101496.47
2022-10-22T12:00:31.577Z,101505.66
2022-10-22T12:03:41.155Z,101504.41
2022-10-22T12:06:15.800Z,101498.34
2022-10-22T12:08:47.085Z,101512.63
2022-10-22T12:11:34.318Z,101511.81
2022-10-22T12:14:20.068Z,101512.00
2022-10-22T12:16:57.256Z,101510.75
2022-10-22T12:19:29.427Z,101515.91
2022-10-22T12:22:02.253Z,101515.13
2022-10-22T12:24:37.228Z,101521.19
2022-10-22T12:27:04.339Z,101524.16
2022-10-22T12:29:32.957Z,101514.66
2022-10-22T12:32:04.884Z,101522.44
2022-10-22T12:34:31.846Z,101520.09
2022-10-22T12:36:58.839Z,101511.09
2022-10-22T12:39:27.504Z,101520.25
2022-10-22T12:41:55.590Z,101515.69
2022-10-22T12:44:22.447Z,101517.94
2022-10-22T12:46:53.184Z,101520.53
2022-10-22T12:49:30.308Z,101527.72
2022-10-22T12:52:03.297Z,101516.75
2022-10-22T12:54:32.254Z,101520.69
2022-10-22T12:57:00.594Z,101510.19
2022-10-22T12:59:33.648Z,101513.91
2022-10-22T13:02:00.949Z,101512.31
2022-10-22T13:04:36.653Z,101520.16
2022-10-22T13:07:12.478Z,101524.09
2022-10-22T13:09:48.521Z,101524.09
2022-10-22T13:12:18.852Z,101519.69
2022-10-22T13:14:47.216Z,101517.13
2022-10-22T13:17:38.155Z,101522.09
2022-10-22T13:20:19.540Z,101516.91
2022-10-22T13:23:16.711Z,101516.59
2022-10-22T13:25:43.636Z,101518.47
2022-10-22T13:28:10.525Z,101514.91
2022-10-22T13:30:39.493Z,101515.03
2022-10-22T13:33:28.327Z,101521.13
2022-10-22T13:35:57.124Z,101517.75
2022-10-22T13:38:26.722Z,101520.25
2022-10-22T13:40:54.104Z,101532.56
2022-10-22T13:43:21.265Z,101525.78
2022-10-22T13:45:52.171Z,101538.75
2022-10-22T13:48:22.306Z,101531.03
2022-10-22T13:50:50.310Z,101537.97
2022-10-22T13:53:20.968Z,101539.91
2022-10-22T13:55:48.143Z,101536.63
2022-10-22T13:58:20.355Z,101536.22
2022-10-22T14:00:51.584Z,101540.91
2022-10-22T14:03:21.983Z,101536.84
2022-10-22T14:05:49.427Z,101540.28
2022-10-22T14:08:20.295Z,101536.72
2022-10-22T14:10:47.670Z,101540.59
2022-10-22T14:13:17.370Z,101541.19
2022-10-22T14:15:47.019Z,101540.00
2022-10-22T14:18:24.277Z,101539.03
2022-10-22T14:20:54.063Z,101535.13
2022-10-22T14:23:23.401Z,101542.59
2022-10-22T14:25:54.023Z,101542.09
2022-10-22T14:28:20.947Z,101541.34
2022-10-22T14:30:48.425Z,101542.31
2022-10-22T14:33:31.404Z,101548.38
2022-10-22T14:36:00.445Z,101542.47
2022-10-22T14:38:28.338Z,101545.41
2022-10-22T14:40:55.840Z,101547.13
2022-10-22T14:43:25.510Z,101548.03
2022-10-22T14:45:52.626Z,101563.69
2022-10-22T14:50:47.703Z,101578.59
2022-10-22T14:53:16.794Z,101571.31
2022-10-22T14:55:45.078Z,101573.00
2022-10-22T14:58:12.639Z,101579.97
2022-10-22T15:00:43.734Z,101575.47
2022-10-22T15:03:11.023Z,101574.22
2022-10-22T15:05:44.720Z,101583.69
2022-10-22T15:08:13.814Z,101581.34
2022-10-22T15:10:40.915Z,101588.63
2022-10-22T15:13:08.259Z,101577.00
2022-10-22T15:15:39.514Z,101582.09
2022-10-22T15:18:07.544Z,101582.69
2022-10-22T15:20:34.637Z,101585.50
2022-10-22T15:23:01.610Z,101589.81
2022-10-22T15:25:28.939Z,101595.38
2022-10-22T15:28:00.801Z,101589.66
2022-10-22T15:30:31.725Z,101588.69
2022-10-22T15:32:58.685Z,101590.88
2022-10-22T15:35:28.614Z,101590.97
2022-10-22T15:37:55.647Z,101599.81
2022-10-22T15:40:22.514Z,101594.66
2022-10-22T15:42:49.553Z,101596.69
2022-10-22T15:45:16.819Z,101596.78
2022-10-22T15:47:48.364Z,101600.94
2022-10-22T15:50:15.708Z,101603.69
2022-10-22T15:52:42.746Z,101606.72
2022-10-22T15:55:10.801Z,101607.44
2022-10-22T15:57:39.339Z,101606.34
2022-10-22T16:00:07.829Z,101590.63
2022-10-22T16:02:34.884Z,101599.84
2022-10-22T16:05:01.910Z,101599.00
2022-10-22T16:07:30.133Z,101595.53
2022-10-22T16:10:01.748Z,101593.31
2022-10-22T16:12:28.875Z,101595.88
2022-10-22T16:14:55.938Z,101593.94
2022-10-22T16:17:23.491Z,101597.25
2022-10-22T16:19:50.464Z,101600.59
2022-10-22T16:22:17.407Z,101601.59
2022-10-22T16:24:44.377Z,101607.53
2022-10-22T16:27:11.361Z,101598.75
2022-10-22T16:29:42.209Z,101601.78
2022-10-22T16:32:09.229Z,101604.78
2022-10-22T16:34:36.183Z,101615.97
2022-10-22T16:37:03.214Z,101615.38
2022-10-22T16:39:30.148Z,101609.22
2022-10-22T16:41:57.147Z,101614.38
2022-10-22T16:44:24.240Z,101609.78
2022-10-22T16:46:51.190Z,101618.03
2022-10-22T16:49:18.178Z,101621.03
2022-10-22T16:51:45.161Z,101620.34
2022-10-22T16:54:13.670Z,101624.59
2022-10-22T16:56:40.665Z,101618.66
2022-10-22T16:59:07.911Z,101625.53
2022-10-22T17:01:39.481Z,101619.59
2022-10-22T17:04:07.767Z,101618.88
2022-10-22T17:06:34.724Z,101619.25
2022-10-22T17:09:01.728Z,101616.19
2022-10-22T17:11:35.207Z,101621.00
2022-10-22T17:14:04.138Z,101619.00
2022-10-22T17:16:31.006Z,101622.75
2022-10-22T17:18:58.473Z,101625.47
2022-10-22T17:21:25.480Z,101625.78
2022-10-22T17:23:58.771Z,101632.97
2022-10-22T17:26:27.028Z,101632.75
2022-10-22T17:28:54.977Z,101642.50
2022-10-22T17:31:27.979Z,101645.00
2022-10-22T17:33:56.251Z,101651.84
2022-10-22T17:36:24.824Z,101655.88
2022-10-22T17:38:57.184Z,101656.97
2022-10-22T17:41:27.182Z,101655.19
2022-10-22T17:43:55.537Z,101649.22
2022-10-22T17:46:27.912Z,101657.91
2022-10-22T17:49:03.950Z,101659.50
2022-10-22T17:51:31.927Z,101658.50
2022-10-22T17:53:59.275Z,101655.16
2022-10-22T17:56:30.163Z,101656.75
2022-10-22T17:58:57.534Z,101656.81
2022-10-22T18:01:28.999Z,101646.38
2022-10-22T18:03:59.990Z,101641.97
2022-10-22T18:06:27.000Z,101654.81
2022-10-22T18:11:28.047Z,101655.69
2022-10-22T18:13:56.956Z,101660.72
2022-10-22T18:16:24.015Z,101662.31
2022-10-22T18:18:55.884Z,101671.50
2022-10-22T18:21:25.587Z,101669.41
2022-10-22T18:23:52.889Z,101665.50
2022-10-22T18:26:22.849Z,101663.41
2022-10-22T18:28:52.994Z,101665.00
2022-10-22T18:31:21.923Z,101663.44
2022-10-22T18:33:49.351Z,101662.72
2022-10-22T18:36:21.875Z,101662.19
2022-10-22T18:38:54.113Z,101666.94
2022-10-22T18:41:21.559Z,101662.47
2022-10-22T18:43:53.065Z,101665.91
2022-10-22T18:46:20.876Z,101669.81
2022-10-22T18:48:47.812Z,101669.63
2022-10-22T18:51:15.473Z,101668.81
2022-10-22T18:53:53.615Z,101680.34
2022-10-22T18:56:29.581Z,101679.84
2022-10-22T18:58:56.554Z,101669.88
2022-10-22T19:01:25.823Z,101682.47
2022-10-22T19:03:52.851Z,101680.91
2022-10-22T19:06:27.414Z,101680.16
2022-10-22T19:08:54.349Z,101666.81
2022-10-22T20:33:33.436Z,101656.91
2022-10-22T20:36:13.214Z,101656.41
2022-10-22T20:38:40.168Z,101666.84
2022-10-22T20:41:11.007Z,101664.50
2022-10-22T20:43:38.078Z,101658.25
2022-10-22T20:46:05.242Z,101662.41
2022-10-22T20:48:34.522Z,101653.53
2022-10-22T20:51:01.881Z,101664.75
2022-10-22T20:53:29.058Z,101667.13
2022-10-22T20:55:59.158Z,101663.47
2022-10-22T20:58:27.545Z,101669.47
2022-10-22T21:00:55.355Z,101662.66
2022-10-22T21:03:23.070Z,101663.47
2022-10-22T21:05:50.146Z,101664.25
2022-10-22T21:08:17.875Z,101665.03
2022-10-22T21:10:49.805Z,101664.00
2022-10-22T21:13:19.834Z,101661.38
2022-10-22T21:15:46.871Z,101661.88
2022-10-22T21:18:13.907Z,101658.25
2022-10-22T21:20:41.374Z,101658.25
2022-10-22T21:23:09.095Z,101660.84
2022-10-22T21:25:39.540Z,101664.50
2022-10-22T21:28:08.925Z,101667.88
2022-10-22T21:30:35.701Z,101674.44
2022-10-22T21:33:02.634Z,101682.28
2022-10-22T21:35:29.677Z,101677.06
2022-10-22T21:37:56.509Z,101673.38
2022-10-22T21:40:23.516Z,101670.53
2022-10-22T21:42:50.685Z,101668.16
2022-10-22T21:45:22.033Z,101661.94
2022-10-22T21:47:49.256Z,101663.75
2022-10-22T21:50:16.119Z,101660.31
2022-10-22T21:52:43.072Z,101668.97
2022-10-22T21:55:10.211Z,101672.59
2022-10-22T21:57:37.016Z,101677.06
2022-10-22T22:00:07.456Z,101670.00
2022-10-22T22:02:34.678Z,101669.22
2022-10-22T22:05:01.621Z,101673.38
2022-10-22T22:07:28.649Z,101681.22
2022-10-22T22:09:55.611Z,101681.22
2022-10-22T22:12:22.519Z,101681.22
2022-10-22T22:14:49.495Z,101668.16
2022-10-22T22:17:16.805Z,101665.53
2022-10-22T22:19:43.691Z,101659.31
2022-10-22T22:22:10.809Z,101670.53
2022-10-22T22:24:39.919Z,101656.72
2022-10-22T22:27:07.323Z,101652.00
2022-10-22T22:29:34.507Z,101656.94
2022-10-22T22:32:01.309Z,101648.31
2022-10-22T22:34:28.188Z,101651.47
2022-10-22T22:36:54.967Z,101644.41
2022-10-22T22:39:25.516Z,101650.44
2022-10-22T22:41:52.417Z,101639.69
2022-10-22T22:44:19.343Z,101639.44
2022-10-22T22:46:46.213Z,101640.22
2022-10-22T22:49:14.066Z,101642.81
2022-10-22T22:51:41.214Z,101643.09
2022-10-22T22:54:07.994Z,101640.47
2022-10-22T22:56:34.844Z,101626.63
2022-10-22T22:59:02.038Z,101627.16
2022-10-22T23:01:36.676Z,101631.31
2022-10-22T23:04:16.499Z,101642.06
2022-10-22T23:06:43.344Z,101638.38
2022-10-22T23:09:12.281Z,101630.28
2022-10-22T23:11:39.796Z,101630.03
2022-10-22T23:14:08.093Z,101620.59
2022-10-22T23:16:37.483Z,101619.56
2022-10-22T23:19:05.456Z,101612.78
2022-10-22T23:21:35.253Z,101612.00
2022-10-22T23:24:05.825Z,101620.09
2022-10-22T23:26:39.705Z,101613.81
2022-10-22T23:29:14.916Z,101606.00
2022-10-22T23:31:42.893Z,101611.22
2022-10-22T23:34:11.612Z,101608.59
2022-10-22T23:36:38.906Z,101610.69
2022-10-22T23:39:10.184Z,101625.06
2022-10-22T23:41:37.491Z,101621.69
2022-10-22T23:44:05.214Z,101619.34
2022-10-22T23:46:33.416Z,101624.56
2022-10-22T23:49:01.135Z,101619.84
2022-10-22T23:51:28.446Z,101607.06
2022-10-22T23:53:58.171Z,101589.00
2022-10-22T23:56:25.353Z,101591.88
2022-10-22T23:58:52.865Z,101595.56
